createdAt,value
2018-11-23T00:02:34.477Z,91.30
2018-11-23T00:05:38.674Z,97.43
2018-11-23T00:08:41.650Z,94.63
2018-11-23T00:11:45.790Z,101.50
2018-11-23T00:14:48.850Z,96.37
2018-11-23T00:17:52.706Z,97.47
2018-11-23T00:20:56.373Z,101.80
2018-11-23T00:23:59.927Z,105.17
2018-11-23T00:27:02.980Z,104.27
2018-11-23T00:30:08.215Z,97.77
2018-11-23T00:33:11.222Z,108.03
2018-11-23T00:36:14.289Z,107.83
2018-11-23T00:39:17.775Z,98.53
2018-11-23T00:42:21.370Z,109.57
2018-11-23T00:45:24.381Z,116.53
2018-11-23T00:48:28.542Z,120.93
2018-11-23T00:51:32.207Z,104.13
2018-11-23T00:54:36.098Z,109.77
2018-11-23T00:57:39.729Z,115.40
2018-11-23T01:00:44.150Z,107.50
2018-11-23T01:03:47.282Z,116.07
2018-11-23T01:06:50.822Z,106.73
2018-11-23T01:09:56.466Z,102.83
2018-11-23T01:13:00.583Z,101.40
2018-11-23T01:16:04.878Z,112.63
2018-11-23T01:19:08.839Z,112.27
2018-11-23T01:22:12.832Z,106.23
2018-11-23T01:25:17.102Z,108.37
2018-11-23T01:28:21.374Z,106.57
2018-11-23T01:31:25.038Z,103.13
2018-11-23T01:34:29.754Z,109.70
2018-11-23T01:37:34.008Z,111.03
2018-11-23T01:40:38.792Z,104.90
2018-11-23T01:43:42.022Z,113.40
2018-11-23T01:46:45.083Z,108.33
2018-11-23T01:49:48.814Z,103.90
2018-11-23T01:52:57.192Z,107.07
2018-11-23T01:56:01.154Z,109.23
2018-11-23T01:59:04.990Z,103.40
2018-11-23T02:02:08.856Z,115.73
2018-11-23T02:05:11.920Z,97.13
2018-11-23T02:08:14.953Z,105.40
2018-11-23T02:11:18.065Z,106.97
2018-11-23T02:14:21.433Z,118.83
2018-11-23T02:17:24.463Z,112.33
2018-11-23T02:20:27.515Z,107.53
2018-11-23T02:23:30.541Z,100.17
2018-11-23T02:26:33.673Z,107.77
2018-11-23T02:29:36.693Z,104.23
2018-11-23T02:32:40.073Z,107.27
2018-11-23T02:35:43.285Z,112.63
2018-11-23T02:38:46.389Z,104.07
2018-11-23T02:41:49.448Z,103.13
2018-11-23T02:44:52.494Z,102.33
2018-11-23T02:47:55.793Z,103.27
2018-11-23T02:50:58.859Z,101.77
2018-11-23T02:54:02.068Z,107.63
2018-11-23T02:57:05.552Z,110.97
2018-11-23T03:00:13.953Z,100.60
2018-11-23T03:03:16.964Z,103.40
2018-11-23T03:06:20.089Z,98.17
2018-11-23T03:09:23.143Z,94.97
2018-11-23T03:12:26.133Z,108.43
2018-11-23T03:15:29.164Z,98.07
2018-11-23T03:18:32.217Z,109.10
2018-11-23T03:21:35.392Z,109.57
2018-11-23T03:24:38.399Z,101.20
2018-11-23T03:27:41.425Z,99.93
2018-11-23T03:30:44.488Z,108.23
2018-11-23T03:33:47.608Z,101.10
2018-11-23T03:36:50.723Z,99.77
2018-11-23T03:39:53.751Z,107.07
2018-11-23T03:42:56.847Z,96.47
2018-11-23T03:45:59.835Z,105.67
2018-11-23T03:49:03.065Z,102.90
2018-11-23T03:52:06.228Z,108.33
2018-11-23T03:55:09.248Z,106.17
2018-11-23T03:58:12.314Z,108.33
2018-11-23T04:01:15.304Z,120.53
2018-11-23T04:04:18.267Z,105.50
2018-11-23T04:07:21.419Z,108.30
2018-11-23T04:10:24.472Z,109.43
2018-11-23T04:13:27.466Z,120.13
2018-11-23T04:16:30.484Z,124.07
2018-11-23T04:19:33.551Z,111.57
2018-11-23T04:22:37.492Z,119.27
2018-11-23T04:25:40.651Z,118.03
2018-11-23T04:28:43.640Z,119.60
2018-11-23T04:31:46.638Z,127.73
2018-11-23T04:34:49.728Z,129.07
2018-11-23T04:37:52.787Z,121.43
2018-11-23T04:40:55.807Z,143.33
2018-11-23T04:43:58.833Z,127.90
2018-11-23T04:47:01.892Z,128.37
2018-11-23T04:50:05.498Z,131.27
2018-11-23T04:53:08.564Z,128.10
2018-11-23T04:56:18.335Z,131.27
2018-11-23T04:59:21.428Z,133.00
2018-11-23T05:02:24.420Z,144.50
2018-11-23T05:05:27.544Z,141.30
2018-11-23T05:08:30.585Z,142.70
2018-11-23T05:11:33.628Z,134.20
2018-11-23T05:14:36.892Z,144.17
2018-11-23T05:17:40.196Z,150.03
2018-11-23T05:20:43.283Z,152.73
2018-11-23T05:23:46.280Z,143.50
2018-11-23T05:26:49.269Z,146.43
2018-11-23T05:29:52.257Z,147.63
2018-11-23T05:32:55.280Z,144.23
2018-11-23T05:35:58.331Z,133.90
2018-11-23T05:39:01.371Z,136.30
2018-11-23T05:42:04.420Z,152.27
2018-11-23T05:45:10.955Z,140.87
2018-11-23T05:48:13.986Z,152.47
2018-11-23T05:51:16.972Z,148.73
2018-11-23T05:54:19.964Z,136.00
2018-11-23T05:57:22.952Z,122.10
2018-11-23T06:00:27.523Z,169.17
2018-11-23T06:03:30.573Z,156.13
2018-11-23T06:06:33.566Z,152.90
2018-11-23T06:09:36.552Z,152.73
2018-11-23T06:12:39.520Z,147.63
2018-11-23T06:15:44.713Z,150.87
2018-11-23T06:18:45.634Z,149.37
2018-11-23T06:21:48.595Z,147.77
2018-11-23T06:24:51.647Z,145.57
2018-11-23T06:27:54.804Z,138.53
2018-11-23T06:30:57.795Z,137.60
2018-11-23T06:34:00.890Z,135.33
2018-11-23T06:37:03.975Z,140.63
2018-11-23T06:40:08.226Z,131.77
2018-11-23T06:43:11.287Z,138.83
2018-11-23T06:46:14.385Z,131.30
2018-11-23T06:49:17.368Z,149.53
2018-11-23T06:52:20.500Z,137.87
2018-11-23T06:55:23.676Z,118.73
2018-11-23T06:58:27.060Z,130.63
2018-11-23T07:01:30.051Z,133.03
2018-11-23T07:04:33.056Z,142.90
2018-11-23T07:07:36.335Z,142.57
2018-11-23T07:10:39.303Z,137.50
2018-11-23T07:13:42.335Z,151.33
2018-11-23T07:16:45.407Z,169.33
2018-11-23T07:19:48.408Z,129.70
2018-11-23T07:22:51.387Z,129.87
2018-11-23T07:25:54.693Z,136.90
2018-11-23T07:28:57.676Z,127.40
2018-11-23T07:32:00.672Z,131.07
2018-11-23T07:35:03.968Z,131.57
2018-11-23T07:38:07.045Z,123.33
2018-11-23T07:41:21.008Z,131.23
2018-11-23T07:44:24.022Z,123.03
2018-11-23T07:47:27.244Z,136.67
2018-11-23T07:50:30.287Z,149.97
2018-11-23T07:53:33.383Z,147.17
2018-11-23T07:56:36.467Z,132.70
2018-11-23T07:59:39.455Z,137.07
2018-11-23T08:02:42.860Z,126.13
2018-11-23T08:05:45.845Z,137.70
2018-11-23T08:08:48.835Z,138.47
2018-11-23T08:11:52.237Z,143.83
2018-11-23T08:14:55.368Z,131.87
2018-11-23T08:17:58.427Z,137.97
2018-11-23T08:21:01.516Z,136.33
2018-11-23T08:24:04.712Z,156.10
2018-11-23T08:27:07.700Z,154.27
2018-11-23T08:30:19.088Z,142.40
2018-11-23T08:33:22.080Z,139.90
2018-11-23T08:36:25.074Z,130.07
2018-11-23T08:39:28.060Z,138.77
2018-11-23T08:42:31.048Z,149.90
2018-11-23T08:45:34.040Z,134.53
2018-11-23T08:48:37.030Z,132.93
2018-11-23T08:51:40.121Z,132.90
2018-11-23T08:54:43.123Z,130.57
2018-11-23T08:57:46.208Z,144.00
2018-11-23T09:00:49.178Z,137.70
2018-11-23T09:03:52.223Z,141.57
2018-11-23T09:06:55.279Z,135.10
2018-11-23T09:09:58.268Z,134.67
2018-11-23T09:13:02.696Z,134.60
2018-11-23T09:16:06.499Z,150.20
2018-11-23T09:19:09.492Z,142.40
2018-11-23T09:22:12.483Z,124.63
2018-11-23T09:25:19.785Z,135.23
2018-11-23T09:28:22.764Z,142.23
2018-11-23T09:31:25.964Z,143.13
2018-11-23T09:34:29.096Z,140.17
2018-11-23T09:37:32.143Z,134.37
2018-11-23T09:40:35.182Z,128.53
2018-11-23T09:43:38.259Z,126.53
2018-11-23T09:46:41.466Z,131.03
2018-11-23T09:49:44.539Z,144.63
2018-11-23T09:52:48.792Z,135.50
2018-11-23T09:55:51.836Z,127.20
2018-11-23T09:58:54.875Z,129.93
2018-11-23T10:01:58.052Z,119.47
2018-11-23T10:05:01.108Z,133.37
2018-11-23T10:08:05.499Z,130.73
2018-11-23T10:11:08.524Z,140.30
2018-11-23T10:14:11.560Z,134.30
2018-11-23T10:17:14.596Z,125.23
2018-11-23T10:20:21.449Z,126.97
2018-11-23T10:23:25.267Z,112.57
2018-11-23T10:26:28.423Z,140.80
2018-11-23T10:29:31.419Z,144.27
2018-11-23T10:32:34.560Z,121.97
2018-11-23T10:35:37.609Z,128.53
2018-11-23T10:38:40.743Z,124.53
2018-11-23T10:41:44.308Z,134.87
2018-11-23T10:44:47.333Z,136.90
2018-11-23T10:47:51.212Z,137.73
2018-11-23T10:50:54.225Z,129.00
2018-11-23T10:53:57.634Z,124.10
2018-11-23T10:57:00.933Z,126.13
2018-11-23T11:00:04.528Z,128.23
2018-11-23T11:04:13.629Z,135.00
2018-11-23T11:07:16.628Z,134.20
2018-11-23T11:10:19.755Z,130.53
2018-11-23T11:13:22.812Z,137.27
2018-11-23T11:16:25.805Z,144.00
2018-11-23T11:19:29.003Z,133.43
2018-11-23T11:22:31.988Z,144.93
2018-11-23T11:25:34.984Z,138.70
2018-11-23T11:28:38.078Z,131.83
2018-11-23T11:31:41.267Z,123.00
2018-11-23T11:34:44.468Z,121.47
2018-11-23T11:37:47.350Z,140.33
2018-11-23T11:40:50.344Z,136.13
2018-11-23T11:43:53.335Z,139.80
2018-11-23T11:46:56.323Z,131.40
2018-11-23T11:49:59.416Z,139.50
2018-11-23T11:53:02.404Z,140.53
2018-11-23T11:56:05.783Z,127.70
2018-11-23T11:59:08.900Z,136.43
2018-11-23T12:02:11.995Z,138.10
2018-11-23T12:05:14.961Z,140.20
2018-11-23T12:08:17.974Z,157.33
2018-11-23T12:11:21.163Z,138.00
2018-11-23T12:14:24.364Z,127.53
2018-11-23T12:17:27.452Z,141.17
2018-11-23T12:20:30.445Z,143.73
2018-11-23T12:23:33.438Z,159.40
2018-11-23T12:26:36.460Z,121.23
2018-11-23T12:29:39.620Z,140.47
2018-11-23T12:32:43.564Z,146.10
2018-11-23T12:35:46.714Z,142.37
2018-11-23T12:38:49.856Z,162.43
2018-11-23T12:41:52.911Z,179.80
2018-11-23T12:44:55.935Z,152.37
2018-11-23T12:47:59.097Z,152.60
2018-11-23T12:51:03.039Z,147.67
2018-11-23T12:54:06.544Z,150.47
2018-11-23T12:57:09.712Z,141.17
2018-11-23T13:00:24.830Z,172.27
2018-11-23T13:03:27.979Z,157.00
2018-11-23T13:06:30.996Z,165.57
2018-11-23T13:09:34.363Z,151.43
2018-11-23T13:12:37.392Z,161.53
2018-11-23T13:15:40.479Z,158.23
2018-11-23T13:18:43.562Z,166.00
2018-11-23T13:21:46.674Z,159.97
2018-11-23T13:24:49.932Z,159.73
2018-11-23T13:27:53.056Z,166.27
2018-11-23T13:30:56.116Z,169.77
2018-11-23T13:33:59.240Z,160.73
2018-11-23T13:37:02.627Z,164.97
2018-11-23T13:40:07.879Z,161.00
2018-11-23T13:43:11.085Z,157.13
2018-11-23T13:46:14.148Z,161.67
2018-11-23T13:49:17.265Z,164.30
2018-11-23T13:52:20.365Z,161.37
2018-11-23T13:55:23.420Z,174.47
2018-11-23T13:58:26.543Z,177.70
2018-11-23T14:01:29.608Z,165.97
2018-11-23T14:04:32.728Z,184.40
2018-11-23T14:07:35.992Z,192.40
2018-11-23T14:10:39.022Z,178.47
2018-11-23T14:13:42.076Z,173.83
2018-11-23T14:16:45.101Z,188.50
2018-11-23T14:19:48.196Z,195.00
2018-11-23T14:22:51.354Z,198.93
2018-11-23T14:25:54.894Z,182.73
2018-11-23T14:28:57.435Z,180.30
2018-11-23T14:32:00.460Z,184.20
2018-11-23T14:35:03.519Z,192.53
2018-11-23T14:38:06.544Z,191.30
2018-11-23T14:41:09.743Z,194.43
2018-11-23T14:44:12.804Z,196.50
2018-11-23T14:47:15.824Z,209.67
2018-11-23T14:50:21.363Z,207.67
2018-11-23T14:53:24.462Z,201.20
2018-11-23T14:56:27.632Z,202.03
2018-11-23T14:59:30.724Z,204.80
2018-11-23T15:02:33.967Z,199.13
2018-11-23T15:05:37.624Z,214.27
2018-11-23T15:08:40.641Z,206.90
2018-11-23T15:11:43.709Z,210.13
2018-11-23T15:14:46.900Z,227.87
2018-11-23T15:17:50.689Z,206.53
2018-11-23T15:20:53.699Z,244.60
2018-11-23T15:23:57.324Z,224.00
2018-11-23T15:26:59.991Z,228.83
2018-11-23T15:30:03.247Z,219.37
2018-11-23T15:33:07.092Z,225.37
2018-11-23T15:36:10.193Z,204.73
2018-11-23T15:39:13.627Z,199.80
2018-11-23T15:42:16.683Z,215.83
2018-11-23T15:45:21.135Z,206.23
2018-11-23T15:48:24.196Z,202.23
2018-11-23T15:51:27.184Z,211.50
2018-11-23T15:54:30.203Z,205.03
2018-11-23T15:57:33.280Z,204.47
2018-11-23T16:00:37.672Z,197.97
2018-11-23T16:03:40.688Z,212.43
2018-11-23T16:06:43.703Z,210.67
2018-11-23T16:09:46.871Z,228.17
2018-11-23T16:12:51.044Z,217.93
2018-11-23T16:15:54.079Z,211.40
2018-11-23T16:18:57.077Z,226.23
2018-11-23T16:22:00.095Z,222.23
2018-11-23T16:25:03.560Z,215.63
2018-11-23T16:28:13.048Z,211.33
2018-11-23T16:31:16.080Z,216.83
2018-11-23T16:34:19.201Z,234.57
2018-11-23T16:37:22.259Z,222.53
2018-11-23T16:40:26.708Z,228.70
2018-11-23T16:43:29.772Z,228.53
2018-11-23T16:46:32.867Z,223.10
2018-11-23T16:49:35.958Z,213.10
2018-11-23T16:52:39.468Z,215.87
2018-11-23T16:55:42.492Z,220.43
2018-11-23T16:58:45.524Z,222.70
2018-11-23T17:01:48.548Z,216.77
2018-11-23T17:04:51.627Z,207.30
2018-11-23T17:07:54.625Z,211.37
2018-11-23T17:10:57.859Z,220.20
2018-11-23T17:14:00.911Z,208.50
2018-11-23T17:17:04.028Z,204.30
2018-11-23T17:20:09.068Z,216.70
2018-11-23T17:23:12.682Z,228.63
2018-11-23T17:26:15.735Z,258.63
2018-11-23T17:29:23.195Z,260.03
2018-11-23T17:32:21.816Z,238.00
2018-11-23T17:35:25.014Z,217.70
2018-11-23T17:38:28.095Z,197.87
2018-11-23T17:41:31.108Z,204.23
2018-11-23T17:44:34.224Z,208.43
2018-11-23T17:47:37.391Z,213.47
2018-11-23T17:50:40.531Z,205.10
2018-11-23T17:53:43.569Z,203.80
2018-11-23T17:56:46.663Z,208.23
2018-11-23T17:59:50.168Z,217.20
2018-11-23T18:02:53.700Z,224.90
2018-11-23T18:05:56.763Z,200.27
2018-11-23T18:08:59.755Z,197.97
2018-11-23T18:12:03.084Z,219.23
2018-11-23T18:15:09.403Z,226.27
2018-11-23T18:18:12.649Z,214.60
2018-11-23T18:21:15.704Z,202.30
2018-11-23T18:24:18.740Z,201.47
2018-11-23T18:27:21.787Z,199.33
2018-11-23T18:30:24.820Z,190.77
2018-11-23T18:33:27.868Z,192.53
2018-11-23T18:36:30.891Z,197.17
2018-11-23T18:39:33.952Z,174.20
2018-11-23T18:42:37.184Z,184.53
2018-11-23T18:45:40.251Z,182.40
2018-11-23T18:48:43.331Z,174.60
2018-11-23T18:51:46.355Z,193.23
2018-11-23T18:54:49.417Z,193.30
2018-11-23T18:57:52.456Z,200.17
2018-11-23T19:00:55.503Z,222.60
2018-11-23T19:03:58.496Z,213.23
2018-11-23T19:07:01.580Z,193.60
2018-11-23T19:10:05.548Z,187.57
2018-11-23T19:13:08.854Z,186.77
2018-11-23T19:16:11.884Z,182.33
2018-11-23T19:19:15.033Z,190.67
2018-11-23T19:22:18.076Z,180.57
2018-11-23T19:25:21.059Z,181.17
2018-11-23T19:28:24.051Z,183.20
2018-11-23T19:31:27.039Z,185.33
2018-11-23T19:34:30.161Z,179.20
2018-11-23T19:37:33.256Z,184.13
2018-11-23T19:40:36.419Z,159.80
2018-11-23T19:43:39.412Z,192.30
2018-11-23T19:46:42.399Z,191.07
2018-11-23T19:49:45.396Z,194.97
2018-11-23T19:52:48.383Z,178.73
2018-11-23T19:55:51.479Z,169.23
2018-11-23T19:58:54.466Z,188.13
2018-11-23T20:01:57.456Z,187.97
2018-11-23T20:05:00.495Z,186.47
2018-11-23T20:08:03.572Z,185.67
2018-11-23T20:11:06.631Z,170.20
2018-11-23T20:14:09.620Z,168.20
2018-11-23T20:17:12.720Z,156.10
2018-11-23T20:20:16.320Z,163.00
2018-11-23T20:23:19.311Z,158.27
2018-11-23T20:26:22.303Z,155.80
2018-11-23T20:29:25.300Z,161.00
2018-11-23T20:32:28.280Z,164.63
2018-11-23T20:35:31.308Z,161.03
2018-11-23T20:38:34.373Z,162.13
2018-11-23T20:41:38.355Z,155.53
2018-11-23T20:44:41.383Z,159.17
2018-11-23T20:47:44.560Z,152.73
2018-11-23T20:50:47.575Z,157.93
2018-11-23T20:53:50.649Z,153.33
2018-11-23T20:56:53.636Z,162.63
2018-11-23T20:59:56.627Z,164.20
2018-11-23T21:02:59.664Z,159.87
2018-11-23T21:06:02.708Z,155.83
2018-11-23T21:09:08.820Z,159.07
2018-11-23T21:12:11.864Z,163.93
2018-11-23T21:15:20.195Z,151.80
2018-11-23T21:18:23.274Z,154.47
2018-11-23T21:21:26.364Z,160.33
2018-11-23T21:24:29.462Z,158.27
2018-11-23T21:27:32.452Z,154.50
2018-11-23T21:30:35.460Z,148.93
2018-11-23T21:33:38.533Z,160.53
2018-11-23T21:36:41.524Z,168.20
2018-11-23T21:39:44.636Z,175.37
2018-11-23T21:42:47.687Z,160.57
2018-11-23T21:45:50.672Z,171.47
2018-11-23T21:48:53.689Z,165.97
2018-11-23T21:51:57.279Z,172.53
2018-11-23T21:54:59.767Z,173.27
2018-11-23T21:58:02.656Z,184.37
2018-11-23T22:01:05.657Z,168.60
2018-11-23T22:04:08.640Z,181.73
2018-11-23T22:07:11.639Z,181.57
2018-11-23T22:10:16.455Z,178.90
2018-11-23T22:13:19.483Z,188.00
2018-11-23T22:16:22.545Z,176.13
2018-11-23T22:19:25.579Z,170.43
2018-11-23T22:22:28.631Z,186.17
2018-11-23T22:25:31.653Z,165.67
2018-11-23T22:28:37.879Z,168.20
2018-11-23T22:31:41.060Z,176.30
2018-11-23T22:34:44.116Z,175.90
2018-11-23T22:37:47.142Z,166.30
2018-11-23T22:40:50.200Z,176.70
2018-11-23T22:43:53.230Z,174.23
2018-11-23T22:46:56.283Z,173.93
2018-11-23T22:49:59.315Z,180.87
2018-11-23T22:53:02.380Z,178.90
2018-11-23T22:56:05.596Z,195.77
2018-11-23T22:59:08.656Z,175.47
2018-11-23T23:02:11.811Z,185.80
2018-11-23T23:05:14.872Z,176.83
2018-11-23T23:08:17.964Z,167.83
2018-11-23T23:11:21.024Z,192.03
2018-11-23T23:14:24.047Z,185.80
2018-11-23T23:17:27.108Z,191.57
2018-11-23T23:20:30.236Z,213.70
2018-11-23T23:23:33.296Z,281.30
2018-11-23T23:26:36.364Z,298.33
2018-11-23T23:29:39.378Z,273.77
2018-11-23T23:32:43.020Z,230.17
2018-11-23T23:35:46.073Z,216.47
2018-11-23T23:38:49.271Z,182.27
2018-11-23T23:41:52.261Z,181.83
2018-11-23T23:44:55.384Z,181.87
2018-11-23T23:47:58.451Z,177.50
2018-11-23T23:51:01.465Z,206.13
2018-11-23T23:54:04.732Z,191.10
2018-11-23T23:57:07.860Z,197.90
